sensor_id;sensor_type;location;lat;lon;timestamp;temperature;humidity
26964;DHT22;14521;48.148;-1.656;2023-02-18T00:01:56;18.50;90.20
26964;DHT22;14521;48.148;-1.656;2023-02-18T00:05:18;18.50;90.20
26964;DHT22;14521;48.148;-1.656;2023-02-18T00:08:42;18.50;90.10
26964;DHT22;14521;48.148;-1.656;2023-02-18T00:12:04;18.50;90.10
26964;DHT22;14521;48.148;-1.656;2023-02-18T00:15:27;18.50;90.00
26964;DHT22;14521;48.148;-1.656;2023-02-18T00:18:49;18.50;90.00
26964;DHT22;14521;48.148;-1.656;2023-02-18T00:22:12;18.50;89.90
26964;DHT22;14521;48.148;-1.656;2023-02-18T00:25:34;18.40;89.70
26964;DHT22;14521;48.148;-1.656;2023-02-18T00:28:56;18.40;89.60
26964;DHT22;14521;48.148;-1.656;2023-02-18T00:32:20;18.40;89.60
26964;DHT22;14521;48.148;-1.656;2023-02-18T00:35:42;18.40;89.50
26964;DHT22;14521;48.148;-1.656;2023-02-18T00:39:08;18.40;89.40
26964;DHT22;14521;48.148;-1.656;2023-02-18T00:42:30;18.40;89.40
26964;DHT22;14521;48.148;-1.656;2023-02-18T00:45:52;18.40;89.30
26964;DHT22;14521;48.148;-1.656;2023-02-18T00:49:15;18.40;89.20
26964;DHT22;14521;48.148;-1.656;2023-02-18T00:52:38;18.40;89.10
26964;DHT22;14521;48.148;-1.656;2023-02-18T00:56:01;18.40;89.00
26964;DHT22;14521;48.148;-1.656;2023-02-18T00:59:24;18.40;88.90
26964;DHT22;14521;48.148;-1.656;2023-02-18T01:02:46;18.40;88.80
26964;DHT22;14521;48.148;-1.656;2023-02-18T01:06:10;18.40;88.70
26964;DHT22;14521;48.148;-1.656;2023-02-18T01:09:32;18.40;88.70
26964;DHT22;14521;48.148;-1.656;2023-02-18T01:12:54;18.40;88.60
26964;DHT22;14521;48.148;-1.656;2023-02-18T01:16:17;18.40;88.50
26964;DHT22;14521;48.148;-1.656;2023-02-18T01:19:40;18.40;88.40
26964;DHT22;14521;48.148;-1.656;2023-02-18T01:23:03;18.40;88.40
26964;DHT22;14521;48.148;-1.656;2023-02-18T01:26:26;18.40;88.40
26964;DHT22;14521;48.148;-1.656;2023-02-18T01:29:49;18.30;88.30
26964;DHT22;14521;48.148;-1.656;2023-02-18T01:33:11;18.30;88.40
26964;DHT22;14521;48.148;-1.656;2023-02-18T01:36:33;18.30;88.30
26964;DHT22;14521;48.148;-1.656;2023-02-18T01:39:56;18.30;88.30
26964;DHT22;14521;48.148;-1.656;2023-02-18T01:43:19;18.30;88.30
26964;DHT22;14521;48.148;-1.656;2023-02-18T01:46:42;18.30;88.20
26964;DHT22;14521;48.148;-1.656;2023-02-18T01:50:05;18.30;88.20
26964;DHT22;14521;48.148;-1.656;2023-02-18T01:54:08;18.30;88.10
26964;DHT22;14521;48.148;-1.656;2023-02-18T01:57:36;18.30;88.10
26964;DHT22;14521;48.148;-1.656;2023-02-18T02:00:59;18.30;88.00
26964;DHT22;14521;48.148;-1.656;2023-02-18T02:04:21;18.30;87.90
26964;DHT22;14521;48.148;-1.656;2023-02-18T02:07:45;18.30;87.90
26964;DHT22;14521;48.148;-1.656;2023-02-18T02:18:59;18.20;87.60
26964;DHT22;14521;48.148;-1.656;2023-02-18T02:40:51;18.20;87.10
26964;DHT22;14521;48.148;-1.656;2023-02-18T02:44:28;18.20;87.10
26964;DHT22;14521;48.148;-1.656;2023-02-18T02:55:25;18.20;87.00
26964;DHT22;14521;48.148;-1.656;2023-02-18T02:59:11;18.20;86.90
26964;DHT22;14521;48.148;-1.656;2023-02-18T03:11:04;18.20;86.70
26964;DHT22;14521;48.148;-1.656;2023-02-18T03:25:21;18.20;86.60
26964;DHT22;14521;48.148;-1.656;2023-02-18T03:28:45;18.20;86.60
26964;DHT22;14521;48.148;-1.656;2023-02-18T03:32:10;18.20;86.50
26964;DHT22;14521;48.148;-1.656;2023-02-18T03:35:36;18.20;86.50
26964;DHT22;14521;48.148;-1.656;2023-02-18T03:39:09;18.10;86.50
26964;DHT22;14521;48.148;-1.656;2023-02-18T03:42:33;18.10;86.40
26964;DHT22;14521;48.148;-1.656;2023-02-18T03:45:55;18.20;86.40
26964;DHT22;14521;48.148;-1.656;2023-02-18T03:49:18;18.10;86.40
26964;DHT22;14521;48.148;-1.656;2023-02-18T03:52:41;18.10;86.30
26964;DHT22;14521;48.148;-1.656;2023-02-18T03:56:04;18.20;86.40
26964;DHT22;14521;48.148;-1.656;2023-02-18T03:59:27;18.20;86.30
26964;DHT22;14521;48.148;-1.656;2023-02-18T04:02:49;18.10;86.20
26964;DHT22;14521;48.148;-1.656;2023-02-18T04:06:11;18.10;86.10
26964;DHT22;14521;48.148;-1.656;2023-02-18T04:09:34;18.10;87.00
26964;DHT22;14521;48.148;-1.656;2023-02-18T04:12:56;18.10;86.10
26964;DHT22;14521;48.148;-1.656;2023-02-18T04:16:18;18.10;86.10
26964;DHT22;14521;48.148;-1.656;2023-02-18T04:19:40;18.20;86.10
26964;DHT22;14521;48.148;-1.656;2023-02-18T04:23:03;18.10;86.00
26964;DHT22;14521;48.148;-1.656;2023-02-18T04:26:25;18.10;86.00
26964;DHT22;14521;48.148;-1.656;2023-02-18T04:29:48;18.10;85.90
26964;DHT22;14521;48.148;-1.656;2023-02-18T04:33:10;18.10;85.90
26964;DHT22;14521;48.148;-1.656;2023-02-18T04:36:33;18.10;85.80
26964;DHT22;14521;48.148;-1.656;2023-02-18T04:39:55;18.10;85.80
26964;DHT22;14521;48.148;-1.656;2023-02-18T04:43:17;18.10;85.80
26964;DHT22;14521;48.148;-1.656;2023-02-18T04:46:40;18.10;85.80
26964;DHT22;14521;48.148;-1.656;2023-02-18T04:50:03;18.10;85.80
26964;DHT22;14521;48.148;-1.656;2023-02-18T04:53:25;18.10;85.80
26964;DHT22;14521;48.148;-1.656;2023-02-18T04:56:47;18.10;85.80
26964;DHT22;14521;48.148;-1.656;2023-02-18T05:00:13;18.10;85.90
26964;DHT22;14521;48.148;-1.656;2023-02-18T05:03:35;18.10;85.80
26964;DHT22;14521;48.148;-1.656;2023-02-18T05:06:58;18.00;85.80
26964;DHT22;14521;48.148;-1.656;2023-02-18T05:10:20;18.10;85.80
26964;DHT22;14521;48.148;-1.656;2023-02-18T05:13:42;18.10;85.80
26964;DHT22;14521;48.148;-1.656;2023-02-18T05:17:04;18.10;85.80
26964;DHT22;14521;48.148;-1.656;2023-02-18T05:20:27;18.10;85.70
26964;DHT22;14521;48.148;-1.656;2023-02-18T05:23:49;18.10;85.60
26964;DHT22;14521;48.148;-1.656;2023-02-18T05:27:11;18.10;85.60
26964;DHT22;14521;48.148;-1.656;2023-02-18T05:30:34;18.20;85.60
26964;DHT22;14521;48.148;-1.656;2023-02-18T05:33:56;18.20;85.50
26964;DHT22;14521;48.148;-1.656;2023-02-18T05:37:18;18.20;85.30
26964;DHT22;14521;48.148;-1.656;2023-02-18T05:40:41;18.20;85.20
26964;DHT22;14521;48.148;-1.656;2023-02-18T05:44:03;18.20;85.10
26964;DHT22;14521;48.148;-1.656;2023-02-18T05:47:44;18.20;85.10
26964;DHT22;14521;48.148;-1.656;2023-02-18T05:51:09;18.30;85.10
26964;DHT22;14521;48.148;-1.656;2023-02-18T05:54:31;18.30;84.90
26964;DHT22;14521;48.148;-1.656;2023-02-18T05:57:54;18.30;84.90
26964;DHT22;14521;48.148;-1.656;2023-02-18T06:01:16;18.40;84.90
26964;DHT22;14521;48.148;-1.656;2023-02-18T06:04:38;18.40;84.70
26964;DHT22;14521;48.148;-1.656;2023-02-18T06:08:01;18.40;84.80
26964;DHT22;14521;48.148;-1.656;2023-02-18T06:11:23;18.40;84.70
26964;DHT22;14521;48.148;-1.656;2023-02-18T06:14:46;18.40;84.70
26964;DHT22;14521;48.148;-1.656;2023-02-18T06:18:08;18.40;84.70
26964;DHT22;14521;48.148;-1.656;2023-02-18T06:21:30;18.40;84.60
26964;DHT22;14521;48.148;-1.656;2023-02-18T06:24:53;18.50;84.70
26964;DHT22;14521;48.148;-1.656;2023-02-18T06:28:16;18.50;84.60
26964;DHT22;14521;48.148;-1.656;2023-02-18T06:31:38;18.50;84.60
26964;DHT22;14521;48.148;-1.656;2023-02-18T06:35:00;18.50;84.50
26964;DHT22;14521;48.148;-1.656;2023-02-18T06:38:23;18.50;84.40
26964;DHT22;14521;48.148;-1.656;2023-02-18T06:41:45;18.50;84.40
26964;DHT22;14521;48.148;-1.656;2023-02-18T06:45:08;18.50;84.40
26964;DHT22;14521;48.148;-1.656;2023-02-18T06:48:31;18.60;85.30
26964;DHT22;14521;48.148;-1.656;2023-02-18T06:51:53;18.60;84.40
26964;DHT22;14521;48.148;-1.656;2023-02-18T06:55:15;18.60;84.50
26964;DHT22;14521;48.148;-1.656;2023-02-18T06:58:38;18.60;84.40
26964;DHT22;14521;48.148;-1.656;2023-02-18T07:02:00;18.60;84.40
26964;DHT22;14521;48.148;-1.656;2023-02-18T07:05:23;18.60;84.40
26964;DHT22;14521;48.148;-1.656;2023-02-18T07:08:45;18.60;84.40
26964;DHT22;14521;48.148;-1.656;2023-02-18T07:12:07;18.60;84.30
26964;DHT22;14521;48.148;-1.656;2023-02-18T07:15:30;18.60;84.30
26964;DHT22;14521;48.148;-1.656;2023-02-18T07:18:52;18.70;84.40
26964;DHT22;14521;48.148;-1.656;2023-02-18T07:22:14;18.60;84.20
26964;DHT22;14521;48.148;-1.656;2023-02-18T07:25:36;18.70;84.40
26964;DHT22;14521;48.148;-1.656;2023-02-18T07:28:59;18.60;84.30
26964;DHT22;14521;48.148;-1.656;2023-02-18T07:32:21;18.70;84.40
26964;DHT22;14521;48.148;-1.656;2023-02-18T07:35:43;18.70;84.30
26964;DHT22;14521;48.148;-1.656;2023-02-18T07:39:06;18.70;84.40
26964;DHT22;14521;48.148;-1.656;2023-02-18T07:42:28;18.70;84.60
26964;DHT22;14521;48.148;-1.656;2023-02-18T07:45:50;18.60;84.70
26964;DHT22;14521;48.148;-1.656;2023-02-18T07:49:13;18.60;84.70
26964;DHT22;14521;48.148;-1.656;2023-02-18T07:52:35;18.60;84.60
26964;DHT22;14521;48.148;-1.656;2023-02-18T07:55:58;18.60;84.60
26964;DHT22;14521;48.148;-1.656;2023-02-18T07:59:21;18.60;84.60
26964;DHT22;14521;48.148;-1.656;2023-02-18T08:02:43;18.60;84.60
26964;DHT22;14521;48.148;-1.656;2023-02-18T08:06:06;18.60;84.70
26964;DHT22;14521;48.148;-1.656;2023-02-18T08:09:29;18.60;84.60
26964;DHT22;14521;48.148;-1.656;2023-02-18T08:12:52;18.60;84.60
26964;DHT22;14521;48.148;-1.656;2023-02-18T08:16:15;18.60;84.60
26964;DHT22;14521;48.148;-1.656;2023-02-18T08:19:38;18.60;84.60
26964;DHT22;14521;48.148;-1.656;2023-02-18T08:23:01;18.60;84.60
26964;DHT22;14521;48.148;-1.656;2023-02-18T08:26:23;18.50;84.50
26964;DHT22;14521;48.148;-1.656;2023-02-18T08:29:45;18.50;84.40
26964;DHT22;14521;48.148;-1.656;2023-02-18T08:33:08;18.50;84.40
26964;DHT22;14521;48.148;-1.656;2023-02-18T08:36:30;18.50;84.40
26964;DHT22;14521;48.148;-1.656;2023-02-18T08:39:53;18.60;84.60
26964;DHT22;14521;48.148;-1.656;2023-02-18T08:43:16;18.50;84.50
26964;DHT22;14521;48.148;-1.656;2023-02-18T08:46:39;18.50;84.50
26964;DHT22;14521;48.148;-1.656;2023-02-18T08:50:01;18.50;84.70
26964;DHT22;14521;48.148;-1.656;2023-02-18T08:53:23;18.50;85.00
26964;DHT22;14521;48.148;-1.656;2023-02-18T08:56:46;18.50;85.50
26964;DHT22;14521;48.148;-1.656;2023-02-18T09:00:09;18.50;85.60
26964;DHT22;14521;48.148;-1.656;2023-02-18T09:03:32;18.50;85.70
26964;DHT22;14521;48.148;-1.656;2023-02-18T09:06:54;18.50;85.80
26964;DHT22;14521;48.148;-1.656;2023-02-18T09:10:16;18.60;86.20
26964;DHT22;14521;48.148;-1.656;2023-02-18T09:13:39;18.60;86.40
26964;DHT22;14521;48.148;-1.656;2023-02-18T09:17:02;18.60;86.40
26964;DHT22;14521;48.148;-1.656;2023-02-18T09:20:24;18.60;86.50
26964;DHT22;14521;48.148;-1.656;2023-02-18T09:23:46;18.60;86.50
26964;DHT22;14521;48.148;-1.656;2023-02-18T09:27:09;18.60;86.50
26964;DHT22;14521;48.148;-1.656;2023-02-18T09:30:32;18.60;86.50
26964;DHT22;14521;48.148;-1.656;2023-02-18T09:34:01;18.60;86.50
26964;DHT22;14521;48.148;-1.656;2023-02-18T09:37:23;18.60;86.40
26964;DHT22;14521;48.148;-1.656;2023-02-18T09:40:51;18.60;86.40
26964;DHT22;14521;48.148;-1.656;2023-02-18T09:44:24;18.60;86.40
26964;DHT22;14521;48.148;-1.656;2023-02-18T09:47:47;18.60;86.40
26964;DHT22;14521;48.148;-1.656;2023-02-18T09:51:13;18.60;86.20
26964;DHT22;14521;48.148;-1.656;2023-02-18T09:54:36;18.60;86.20
26964;DHT22;14521;48.148;-1.656;2023-02-18T09:58:01;18.60;86.30
26964;DHT22;14521;48.148;-1.656;2023-02-18T10:01:33;18.50;86.50
26964;DHT22;14521;48.148;-1.656;2023-02-18T10:04:58;18.50;86.30
26964;DHT22;14521;48.148;-1.656;2023-02-18T10:08:27;18.60;86.20
26964;DHT22;14521;48.148;-1.656;2023-02-18T10:11:54;18.60;86.20
26964;DHT22;14521;48.148;-1.656;2023-02-18T10:15:21;18.60;86.00
26964;DHT22;14521;48.148;-1.656;2023-02-18T10:18:45;18.60;86.20
26964;DHT22;14521;48.148;-1.656;2023-02-18T10:22:11;18.60;86.00
26964;DHT22;14521;48.148;-1.656;2023-02-18T10:25:38;18.60;86.00
26964;DHT22;14521;48.148;-1.656;2023-02-18T10:29:13;18.50;85.90
26964;DHT22;14521;48.148;-1.656;2023-02-18T10:32:37;18.60;86.00
26964;DHT22;14521;48.148;-1.656;2023-02-18T10:36:05;18.50;85.90
26964;DHT22;14521;48.148;-1.656;2023-02-18T10:40:27;18.50;85.90
26964;DHT22;14521;48.148;-1.656;2023-02-18T10:43:44;18.50;85.90
26964;DHT22;14521;48.148;-1.656;2023-02-18T10:47:39;18.50;86.10
26964;DHT22;14521;48.148;-1.656;2023-02-18T10:51:14;18.50;86.00
26964;DHT22;14521;48.148;-1.656;2023-02-18T10:55:02;18.50;85.70
26964;DHT22;14521;48.148;-1.656;2023-02-18T10:58:35;18.50;85.90
26964;DHT22;14521;48.148;-1.656;2023-02-18T11:02:01;18.50;85.90
26964;DHT22;14521;48.148;-1.656;2023-02-18T11:05:26;18.50;85.70
26964;DHT22;14521;48.148;-1.656;2023-02-18T11:08:49;18.50;85.90
26964;DHT22;14521;48.148;-1.656;2023-02-18T11:12:25;18.50;85.80
26964;DHT22;14521;48.148;-1.656;2023-02-18T11:19:35;18.50;85.90
26964;DHT22;14521;48.148;-1.656;2023-02-18T11:23:16;18.50;85.90
26964;DHT22;14521;48.148;-1.656;2023-02-18T11:26:39;18.50;86.00
26964;DHT22;14521;48.148;-1.656;2023-02-18T11:30:06;18.50;85.60
26964;DHT22;14521;48.148;-1.656;2023-02-18T11:33:42;18.50;85.70
26964;DHT22;14521;48.148;-1.656;2023-02-18T11:37:19;18.50;85.70
26964;DHT22;14521;48.148;-1.656;2023-02-18T11:40:42;18.50;85.50
26964;DHT22;14521;48.148;-1.656;2023-02-18T11:44:17;18.50;85.50
26964;DHT22;14521;48.148;-1.656;2023-02-18T11:47:40;18.50;85.40
26964;DHT22;14521;48.148;-1.656;2023-02-18T11:51:03;18.50;85.30
26964;DHT22;14521;48.148;-1.656;2023-02-18T11:54:29;18.50;85.10
26964;DHT22;14521;48.148;-1.656;2023-02-18T11:57:59;18.50;85.20
26964;DHT22;14521;48.148;-1.656;2023-02-18T12:01:40;18.50;85.10
26964;DHT22;14521;48.148;-1.656;2023-02-18T12:05:11;18.50;85.20
26964;DHT22;14521;48.148;-1.656;2023-02-18T12:08:48;18.50;85.20
26964;DHT22;14521;48.148;-1.656;2023-02-18T12:12:29;18.50;85.20
26964;DHT22;14521;48.148;-1.656;2023-02-18T12:37:43;18.50;85.10
26964;DHT22;14521;48.148;-1.656;2023-02-18T12:48:51;18.50;85.70
26964;DHT22;14521;48.148;-1.656;2023-02-18T13:15:04;18.50;86.20
26964;DHT22;14521;48.148;-1.656;2023-02-18T13:18:49;18.50;86.20
26964;DHT22;14521;48.148;-1.656;2023-02-18T13:22:15;18.50;85.80
26964;DHT22;14521;48.148;-1.656;2023-02-18T13:25:39;18.50;85.80
26964;DHT22;14521;48.148;-1.656;2023-02-18T13:32:39;18.50;85.50
26964;DHT22;14521;48.148;-1.656;2023-02-18T13:36:08;18.50;85.60
26964;DHT22;14521;48.148;-1.656;2023-02-18T13:39:32;18.50;85.50
26964;DHT22;14521;48.148;-1.656;2023-02-18T13:53:39;18.50;85.20
26964;DHT22;14521;48.148;-1.656;2023-02-18T13:57:12;18.50;85.10
26964;DHT22;14521;48.148;-1.656;2023-02-18T14:00:39;18.50;85.20
26964;DHT22;14521;48.148;-1.656;2023-02-18T14:04:03;18.50;84.90
26964;DHT22;14521;48.148;-1.656;2023-02-18T14:07:28;18.50;84.90
26964;DHT22;14521;48.148;-1.656;2023-02-18T14:14:37;18.50;84.70
26964;DHT22;14521;48.148;-1.656;2023-02-18T14:21:36;18.40;84.70
26964;DHT22;14521;48.148;-1.656;2023-02-18T14:25:03;18.50;84.60
26964;DHT22;14521;48.148;-1.656;2023-02-18T14:28:42;18.40;84.50
26964;DHT22;14521;48.148;-1.656;2023-02-18T14:32:12;18.40;84.30
26964;DHT22;14521;48.148;-1.656;2023-02-18T14:35:39;18.40;84.30
26964;DHT22;14521;48.148;-1.656;2023-02-18T14:43:12;18.40;84.20
26964;DHT22;14521;48.148;-1.656;2023-02-18T14:50:11;18.40;84.20
26964;DHT22;14521;48.148;-1.656;2023-02-18T14:53:41;18.40;84.20
26964;DHT22;14521;48.148;-1.656;2023-02-18T14:57:08;18.40;84.20
26964;DHT22;14521;48.148;-1.656;2023-02-18T15:00:40;18.40;84.20
26964;DHT22;14521;48.148;-1.656;2023-02-18T15:04:03;18.40;84.30
26964;DHT22;14521;48.148;-1.656;2023-02-18T15:07:26;18.40;84.30
26964;DHT22;14521;48.148;-1.656;2023-02-18T15:14:22;18.40;84.20
26964;DHT22;14521;48.148;-1.656;2023-02-18T15:17:47;18.40;84.20
26964;DHT22;14521;48.148;-1.656;2023-02-18T15:21:36;18.40;84.20
26964;DHT22;14521;48.148;-1.656;2023-02-18T15:25:00;18.40;84.20
26964;DHT22;14521;48.148;-1.656;2023-02-18T15:28:27;18.40;84.20
26964;DHT22;14521;48.148;-1.656;2023-02-18T15:31:50;18.40;84.20
26964;DHT22;14521;48.148;-1.656;2023-02-18T15:35:18;18.40;84.70
26964;DHT22;14521;48.148;-1.656;2023-02-18T15:38:41;18.40;84.20
26964;DHT22;14521;48.148;-1.656;2023-02-18T15:45:46;18.40;84.20
26964;DHT22;14521;48.148;-1.656;2023-02-18T15:49:17;18.40;84.20
26964;DHT22;14521;48.148;-1.656;2023-02-18T15:52:40;18.40;84.10
26964;DHT22;14521;48.148;-1.656;2023-02-18T15:56:07;18.40;84.20
26964;DHT22;14521;48.148;-1.656;2023-02-18T15:59:35;18.40;84.20
26964;DHT22;14521;48.148;-1.656;2023-02-18T16:03:12;18.40;84.20
26964;DHT22;14521;48.148;-1.656;2023-02-18T16:06:53;18.40;84.20
26964;DHT22;14521;48.148;-1.656;2023-02-18T16:10:38;18.40;84.30
26964;DHT22;14521;48.148;-1.656;2023-02-18T16:14:01;18.40;84.30
26964;DHT22;14521;48.148;-1.656;2023-02-18T16:17:28;18.40;84.30
26964;DHT22;14521;48.148;-1.656;2023-02-18T16:21:23;18.30;84.30
26964;DHT22;14521;48.148;-1.656;2023-02-18T16:25:00;18.40;84.40
26964;DHT22;14521;48.148;-1.656;2023-02-18T16:28:25;18.40;84.40
26964;DHT22;14521;48.148;-1.656;2023-02-18T16:31:52;18.40;84.40
26964;DHT22;14521;48.148;-1.656;2023-02-18T16:35:14;18.30;84.30
26964;DHT22;14521;48.148;-1.656;2023-02-18T16:38:37;18.40;84.40
26964;DHT22;14521;48.148;-1.656;2023-02-18T16:41:59;18.40;84.40
26964;DHT22;14521;48.148;-1.656;2023-02-18T16:45:36;18.40;84.40
26964;DHT22;14521;48.148;-1.656;2023-02-18T16:48:59;18.30;84.40
26964;DHT22;14521;48.148;-1.656;2023-02-18T16:52:21;18.30;84.40
26964;DHT22;14521;48.148;-1.656;2023-02-18T16:55:43;18.30;84.60
26964;DHT22;14521;48.148;-1.656;2023-02-18T16:59:06;18.30;84.80
26964;DHT22;14521;48.148;-1.656;2023-02-18T17:02:29;18.40;84.60
26964;DHT22;14521;48.148;-1.656;2023-02-18T17:05:52;18.30;84.50
26964;DHT22;14521;48.148;-1.656;2023-02-18T17:12:38;18.30;84.60
26964;DHT22;14521;48.148;-1.656;2023-02-18T17:16:04;18.40;84.60
26964;DHT22;14521;48.148;-1.656;2023-02-18T17:19:27;18.40;84.70
26964;DHT22;14521;48.148;-1.656;2023-02-18T17:22:49;18.40;84.60
26964;DHT22;14521;48.148;-1.656;2023-02-18T17:26:21;18.40;84.40
26964;DHT22;14521;48.148;-1.656;2023-02-18T17:29:45;18.40;84.40
26964;DHT22;14521;48.148;-1.656;2023-02-18T17:33:12;18.50;84.40
26964;DHT22;14521;48.148;-1.656;2023-02-18T17:36:36;18.50;84.30
26964;DHT22;14521;48.148;-1.656;2023-02-18T17:39:58;18.50;84.20
26964;DHT22;14521;48.148;-1.656;2023-02-18T17:43:20;18.50;84.20
26964;DHT22;14521;48.148;-1.656;2023-02-18T17:46:46;18.50;84.20
26964;DHT22;14521;48.148;-1.656;2023-02-18T17:50:10;18.50;84.10
26964;DHT22;14521;48.148;-1.656;2023-02-18T17:53:33;18.60;84.20
26964;DHT22;14521;48.148;-1.656;2023-02-18T17:56:56;18.60;84.20
26964;DHT22;14521;48.148;-1.656;2023-02-18T18:00:22;18.60;84.20
26964;DHT22;14521;48.148;-1.656;2023-02-18T18:03:45;18.60;84.30
26964;DHT22;14521;48.148;-1.656;2023-02-18T18:07:08;18.70;84.60
26964;DHT22;14521;48.148;-1.656;2023-02-18T18:10:33;18.70;84.20
26964;DHT22;14521;48.148;-1.656;2023-02-18T18:13:56;18.80;84.10
26964;DHT22;14521;48.148;-1.656;2023-02-18T18:17:19;18.70;84.00
26964;DHT22;14521;48.148;-1.656;2023-02-18T18:20:44;18.70;84.90
26964;DHT22;14521;48.148;-1.656;2023-02-18T18:24:10;18.70;84.20
26964;DHT22;14521;48.148;-1.656;2023-02-18T18:27:33;18.70;84.20
26964;DHT22;14521;48.148;-1.656;2023-02-18T18:30:55;18.80;84.30
26964;DHT22;14521;48.148;-1.656;2023-02-18T18:34:18;18.80;84.40
26964;DHT22;14521;48.148;-1.656;2023-02-18T18:37:42;18.80;84.40
26964;DHT22;14521;48.148;-1.656;2023-02-18T18:41:04;18.80;84.40
26964;DHT22;14521;48.148;-1.656;2023-02-18T18:44:26;18.80;84.40
26964;DHT22;14521;48.148;-1.656;2023-02-18T18:47:49;18.80;84.40
26964;DHT22;14521;48.148;-1.656;2023-02-18T18:51:17;18.80;84.40
26964;DHT22;14521;48.148;-1.656;2023-02-18T18:54:41;18.80;84.40
26964;DHT22;14521;48.148;-1.656;2023-02-18T18:58:04;18.80;84.40
26964;DHT22;14521;48.148;-1.656;2023-02-18T19:01:26;18.80;84.50
26964;DHT22;14521;48.148;-1.656;2023-02-18T19:04:50;18.80;84.50
26964;DHT22;14521;48.148;-1.656;2023-02-18T19:08:13;18.90;84.60
26964;DHT22;14521;48.148;-1.656;2023-02-18T19:11:37;18.80;85.00
26964;DHT22;14521;48.148;-1.656;2023-02-18T19:14:59;18.80;87.60
26964;DHT22;14521;48.148;-1.656;2023-02-18T19:18:22;18.80;86.60
26964;DHT22;14521;48.148;-1.656;2023-02-18T19:21:44;18.70;86.80
26964;DHT22;14521;48.148;-1.656;2023-02-18T19:25:07;18.70;87.60
26964;DHT22;14521;48.148;-1.656;2023-02-18T19:28:29;18.60;88.00
26964;DHT22;14521;48.148;-1.656;2023-02-18T19:31:52;18.60;88.50
26964;DHT22;14521;48.148;-1.656;2023-02-18T19:35:14;18.60;89.20
26964;DHT22;14521;48.148;-1.656;2023-02-18T19:38:37;18.60;89.80
26964;DHT22;14521;48.148;-1.656;2023-02-18T19:41:59;18.60;89.60
26964;DHT22;14521;48.148;-1.656;2023-02-18T19:45:22;18.50;90.00
26964;DHT22;14521;48.148;-1.656;2023-02-18T19:48:49;18.50;90.30
26964;DHT22;14521;48.148;-1.656;2023-02-18T19:52:12;18.60;90.20
26964;DHT22;14521;48.148;-1.656;2023-02-18T19:55:34;18.60;90.40
26964;DHT22;14521;48.148;-1.656;2023-02-18T19:58:56;18.50;90.50
26964;DHT22;14521;48.148;-1.656;2023-02-18T20:02:21;18.50;90.60
26964;DHT22;14521;48.148;-1.656;2023-02-18T20:05:44;18.60;90.50
26964;DHT22;14521;48.148;-1.656;2023-02-18T20:09:06;18.50;90.60
26964;DHT22;14521;48.148;-1.656;2023-02-18T20:12:29;18.50;90.50
26964;DHT22;14521;48.148;-1.656;2023-02-18T20:15:51;18.50;90.60
26964;DHT22;14521;48.148;-1.656;2023-02-18T20:19:13;18.50;90.60
26964;DHT22;14521;48.148;-1.656;2023-02-18T20:22:35;18.50;90.80
26964;DHT22;14521;48.148;-1.656;2023-02-18T20:25:58;18.60;91.00
26964;DHT22;14521;48.148;-1.656;2023-02-18T20:29:24;18.50;91.30
26964;DHT22;14521;48.148;-1.656;2023-02-18T20:32:46;18.50;91.00
26964;DHT22;14521;48.148;-1.656;2023-02-18T20:36:09;18.50;91.20
26964;DHT22;14521;48.148;-1.656;2023-02-18T20:39:33;18.50;91.10
26964;DHT22;14521;48.148;-1.656;2023-02-18T20:42:55;18.50;91.00
26964;DHT22;14521;48.148;-1.656;2023-02-18T20:46:19;18.50;91.00
26964;DHT22;14521;48.148;-1.656;2023-02-18T20:49:46;18.50;91.10
26964;DHT22;14521;48.148;-1.656;2023-02-18T20:53:09;18.50;91.20
26964;DHT22;14521;48.148;-1.656;2023-02-18T20:56:31;18.50;91.20
26964;DHT22;14521;48.148;-1.656;2023-02-18T20:59:53;18.50;91.00
26964;DHT22;14521;48.148;-1.656;2023-02-18T21:03:16;18.50;91.10
26964;DHT22;14521;48.148;-1.656;2023-02-18T21:06:38;18.50;90.90
26964;DHT22;14521;48.148;-1.656;2023-02-18T21:10:01;18.50;91.00
26964;DHT22;14521;48.148;-1.656;2023-02-18T21:13:25;18.50;91.00
26964;DHT22;14521;48.148;-1.656;2023-02-18T21:16:47;18.50;90.80
26964;DHT22;14521;48.148;-1.656;2023-02-18T21:20:09;18.50;90.80
26964;DHT22;14521;48.148;-1.656;2023-02-18T21:23:32;18.50;90.70
26964;DHT22;14521;48.148;-1.656;2023-02-18T21:26:54;18.50;90.80
26964;DHT22;14521;48.148;-1.656;2023-02-18T21:30:16;18.50;90.80
26964;DHT22;14521;48.148;-1.656;2023-02-18T21:33:39;18.50;90.90
26964;DHT22;14521;48.148;-1.656;2023-02-18T21:37:01;18.50;90.80
26964;DHT22;14521;48.148;-1.656;2023-02-18T21:40:23;18.50;90.60
26964;DHT22;14521;48.148;-1.656;2023-02-18T21:43:46;18.50;91.10
26964;DHT22;14521;48.148;-1.656;2023-02-18T21:47:09;18.50;90.80
26964;DHT22;14521;48.148;-1.656;2023-02-18T21:50:32;18.50;90.60
26964;DHT22;14521;48.148;-1.656;2023-02-18T21:53:54;18.50;90.70
26964;DHT22;14521;48.148;-1.656;2023-02-18T21:57:18;18.50;90.60
26964;DHT22;14521;48.148;-1.656;2023-02-18T22:00:41;18.50;90.60
26964;DHT22;14521;48.148;-1.656;2023-02-18T22:04:03;18.50;90.70
26964;DHT22;14521;48.148;-1.656;2023-02-18T22:07:25;18.50;90.50
26964;DHT22;14521;48.148;-1.656;2023-02-18T22:10:48;18.50;90.50
26964;DHT22;14521;48.148;-1.656;2023-02-18T22:14:11;18.50;90.40
26964;DHT22;14521;48.148;-1.656;2023-02-18T22:17:34;18.50;90.40
26964;DHT22;14521;48.148;-1.656;2023-02-18T22:20:57;18.50;90.50
26964;DHT22;14521;48.148;-1.656;2023-02-18T22:24:19;18.50;90.40
26964;DHT22;14521;48.148;-1.656;2023-02-18T22:27:41;18.40;90.50
26964;DHT22;14521;48.148;-1.656;2023-02-18T22:31:08;18.40;90.40
26964;DHT22;14521;48.148;-1.656;2023-02-18T22:34:32;18.50;90.30
26964;DHT22;14521;48.148;-1.656;2023-02-18T22:37:54;18.50;90.20
26964;DHT22;14521;48.148;-1.656;2023-02-18T22:41:19;18.50;90.20
26964;DHT22;14521;48.148;-1.656;2023-02-18T22:44:41;18.50;90.20
26964;DHT22;14521;48.148;-1.656;2023-02-18T22:48:04;18.50;90.20
26964;DHT22;14521;48.148;-1.656;2023-02-18T22:51:29;18.50;90.20
26964;DHT22;14521;48.148;-1.656;2023-02-18T22:54:52;18.50;90.20
26964;DHT22;14521;48.148;-1.656;2023-02-18T22:58:16;18.40;90.10
26964;DHT22;14521;48.148;-1.656;2023-02-18T23:01:40;18.50;90.10
26964;DHT22;14521;48.148;-1.656;2023-02-18T23:05:02;18.50;90.10
26964;DHT22;14521;48.148;-1.656;2023-02-18T23:08:25;18.40;90.00
26964;DHT22;14521;48.148;-1.656;2023-02-18T23:11:52;18.40;90.00
26964;DHT22;14521;48.148;-1.656;2023-02-18T23:15:15;18.40;90.10
26964;DHT22;14521;48.148;-1.656;2023-02-18T23:18:37;18.50;90.10
26964;DHT22;14521;48.148;-1.656;2023-02-18T23:22:00;18.40;89.90
26964;DHT22;14521;48.148;-1.656;2023-02-18T23:25:22;18.40;90.00
26964;DHT22;14521;48.148;-1.656;2023-02-18T23:28:45;18.40;89.90
26964;DHT22;14521;48.148;-1.656;2023-02-18T23:32:10;18.40;89.90
26964;DHT22;14521;48.148;-1.656;2023-02-18T23:35:33;18.40;89.90
26964;DHT22;14521;48.148;-1.656;2023-02-18T23:38:57;18.40;89.80
26964;DHT22;14521;48.148;-1.656;2023-02-18T23:42:19;18.40;89.80